sensor_id;sensor_type;location;lat;lon;timestamp;P1;durP1;ratioP1;P2;durP2;ratioP2
8007;SDS011;4049;49.468;11.200;2023-03-21T00:00:27;5.80;;;4.63;;
8007;SDS011;4049;49.468;11.200;2023-03-21T00:02:53;8.00;;;5.70;;
8007;SDS011;4049;49.468;11.200;2023-03-21T00:05:20;9.13;;;5.60;;
8007;SDS011;4049;49.468;11.200;2023-03-21T00:07:47;9.57;;;5.87;;
8007;SDS011;4049;49.468;11.200;2023-03-21T00:10:14;12.70;;;6.33;;
8007;SDS011;4049;49.468;11.200;2023-03-21T00:12:41;8.87;;;5.53;;
8007;SDS011;4049;49.468;11.200;2023-03-21T00:15:10;10.73;;;6.40;;
8007;SDS011;4049;49.468;11.200;2023-03-21T00:17:38;7.40;;;5.43;;
8007;SDS011;4049;49.468;11.200;2023-03-21T00:20:05;10.17;;;6.23;;
8007;SDS011;4049;49.468;11.200;2023-03-21T00:22:39;11.47;;;7.07;;
8007;SDS011;4049;49.468;11.200;2023-03-21T00:25:07;11.03;;;5.90;;
8007;SDS011;4049;49.468;11.200;2023-03-21T00:27:34;11.37;;;6.10;;
8007;SDS011;4049;49.468;11.200;2023-03-21T00:30:02;11.57;;;7.00;;
8007;SDS011;4049;49.468;11.200;2023-03-21T00:32:31;11.60;;;6.60;;
8007;SDS011;4049;49.468;11.200;2023-03-21T00:34:58;10.03;;;6.37;;
8007;SDS011;4049;49.468;11.200;2023-03-21T00:37:25;11.83;;;6.97;;
8007;SDS011;4049;49.468;11.200;2023-03-21T00:39:52;10.10;;;5.87;;
8007;SDS011;4049;49.468;11.200;2023-03-21T00:42:19;12.17;;;7.30;;
8007;SDS011;4049;49.468;11.200;2023-03-21T00:44:46;12.53;;;6.87;;
8007;SDS011;4049;49.468;11.200;2023-03-21T00:47:12;10.53;;;6.30;;
8007;SDS011;4049;49.468;11.200;2023-03-21T00:49:41;10.87;;;6.67;;
8007;SDS011;4049;49.468;11.200;2023-03-21T00:52:08;11.90;;;6.90;;
8007;SDS011;4049;49.468;11.200;2023-03-21T00:54:35;13.73;;;6.63;;
8007;SDS011;4049;49.468;11.200;2023-03-21T00:57:03;11.77;;;7.50;;
8007;SDS011;4049;49.468;11.200;2023-03-21T00:59:30;13.20;;;7.87;;
8007;SDS011;4049;49.468;11.200;2023-03-21T01:01:56;11.93;;;7.00;;
8007;SDS011;4049;49.468;11.200;2023-03-21T01:04:25;9.43;;;6.17;;
8007;SDS011;4049;49.468;11.200;2023-03-21T01:06:53;14.33;;;7.13;;
8007;SDS011;4049;49.468;11.200;2023-03-21T01:09:21;10.97;;;6.33;;
8007;SDS011;4049;49.468;11.200;2023-03-21T01:11:49;9.13;;;6.03;;
8007;SDS011;4049;49.468;11.200;2023-03-21T01:14:16;10.90;;;6.37;;
8007;SDS011;4049;49.468;11.200;2023-03-21T01:16:45;9.03;;;6.10;;
8007;SDS011;4049;49.468;11.200;2023-03-21T01:19:13;13.27;;;6.40;;
8007;SDS011;4049;49.468;11.200;2023-03-21T01:21:41;9.57;;;6.37;;
8007;SDS011;4049;49.468;11.200;2023-03-21T01:24:10;8.27;;;5.33;;
8007;SDS011;4049;49.468;11.200;2023-03-21T01:26:36;9.03;;;6.30;;
8007;SDS011;4049;49.468;11.200;2023-03-21T01:29:03;10.00;;;6.27;;
8007;SDS011;4049;49.468;11.200;2023-03-21T01:31:30;8.50;;;6.07;;
8007;SDS011;4049;49.468;11.200;2023-03-21T01:33:57;8.30;;;6.03;;
8007;SDS011;4049;49.468;11.200;2023-03-21T01:36:24;10.20;;;6.00;;
8007;SDS011;4049;49.468;11.200;2023-03-21T01:38:52;10.23;;;5.47;;
8007;SDS011;4049;49.468;11.200;2023-03-21T01:41:22;7.83;;;5.03;;
8007;SDS011;4049;49.468;11.200;2023-03-21T01:43:51;10.27;;;5.70;;
8007;SDS011;4049;49.468;11.200;2023-03-21T01:46:20;10.47;;;4.63;;
8007;SDS011;4049;49.468;11.200;2023-03-21T01:48:53;6.00;;;4.23;;
8007;SDS011;4049;49.468;11.200;2023-03-21T01:51:23;6.33;;;4.40;;
8007;SDS011;4049;49.468;11.200;2023-03-21T01:53:52;7.87;;;4.27;;
8007;SDS011;4049;49.468;11.200;2023-03-21T01:56:23;5.53;;;4.07;;
8007;SDS011;4049;49.468;11.200;2023-03-21T01:58:54;6.00;;;3.90;;
8007;SDS011;4049;49.468;11.200;2023-03-21T02:01:27;5.23;;;4.00;;
8007;SDS011;4049;49.468;11.200;2023-03-21T02:03:55;5.67;;;4.30;;
8007;SDS011;4049;49.468;11.200;2023-03-21T02:06:31;5.30;;;3.50;;
8007;SDS011;4049;49.468;11.200;2023-03-21T02:09:04;6.83;;;4.30;;
8007;SDS011;4049;49.468;11.200;2023-03-21T02:11:35;7.37;;;4.07;;
8007;SDS011;4049;49.468;11.200;2023-03-21T02:14:04;5.50;;;4.00;;
8007;SDS011;4049;49.468;11.200;2023-03-21T02:16:39;6.70;;;3.70;;
8007;SDS011;4049;49.468;11.200;2023-03-21T02:19:17;8.57;;;3.80;;
8007;SDS011;4049;49.468;11.200;2023-03-21T02:22:15;5.10;;;3.60;;
8007;SDS011;4049;49.468;11.200;2023-03-21T02:25:06;5.20;;;3.97;;
8007;SDS011;4049;49.468;11.200;2023-03-21T02:27:57;5.87;;;3.70;;
8007;SDS011;4049;49.468;11.200;2023-03-21T02:30:40;5.23;;;3.60;;
8007;SDS011;4049;49.468;11.200;2023-03-21T02:36:16;7.77;;;4.10;;
8007;SDS011;4049;49.468;11.200;2023-03-21T02:38:53;4.73;;;3.40;;
8007;SDS011;4049;49.468;11.200;2023-03-21T02:41:25;6.80;;;4.33;;
8007;SDS011;4049;49.468;11.200;2023-03-21T02:43:58;6.13;;;3.20;;
8007;SDS011;4049;49.468;11.200;2023-03-21T02:46:31;6.10;;;3.87;;
8007;SDS011;4049;49.468;11.200;2023-03-21T02:49:06;6.33;;;3.77;;
8007;SDS011;4049;49.468;11.200;2023-03-21T02:51:36;6.10;;;3.43;;
8007;SDS011;4049;49.468;11.200;2023-03-21T02:54:08;4.53;;;3.20;;
8007;SDS011;4049;49.468;11.200;2023-03-21T02:56:38;5.80;;;3.23;;
8007;SDS011;4049;49.468;11.200;2023-03-21T02:59:07;5.17;;;3.80;;
8007;SDS011;4049;49.468;11.200;2023-03-21T03:01:35;5.97;;;3.40;;
8007;SDS011;4049;49.468;11.200;2023-03-21T03:04:02;4.67;;;3.43;;
8007;SDS011;4049;49.468;11.200;2023-03-21T03:06:30;5.23;;;3.10;;
8007;SDS011;4049;49.468;11.200;2023-03-21T03:09:11;4.77;;;3.20;;
8007;SDS011;4049;49.468;11.200;2023-03-21T03:11:47;5.73;;;3.87;;
8007;SDS011;4049;49.468;11.200;2023-03-21T03:14:32;5.97;;;3.83;;
8007;SDS011;4049;49.468;11.200;2023-03-21T03:17:15;5.97;;;3.70;;
8007;SDS011;4049;49.468;11.200;2023-03-21T03:19:49;5.20;;;3.60;;
8007;SDS011;4049;49.468;11.200;2023-03-21T03:22:32;6.67;;;4.17;;
8007;SDS011;4049;49.468;11.200;2023-03-21T03:25:06;5.57;;;3.50;;
8007;SDS011;4049;49.468;11.200;2023-03-21T03:27:38;6.93;;;3.90;;
8007;SDS011;4049;49.468;11.200;2023-03-21T03:30:08;5.50;;;3.53;;
8007;SDS011;4049;49.468;11.200;2023-03-21T03:32:37;7.07;;;4.17;;
8007;SDS011;4049;49.468;11.200;2023-03-21T03:35:09;8.70;;;4.10;;
8007;SDS011;4049;49.468;11.200;2023-03-21T03:37:38;6.83;;;4.30;;
8007;SDS011;4049;49.468;11.200;2023-03-21T03:40:09;7.03;;;4.00;;
8007;SDS011;4049;49.468;11.200;2023-03-21T03:42:41;5.70;;;4.07;;
8007;SDS011;4049;49.468;11.200;2023-03-21T03:45:12;7.67;;;4.83;;
8007;SDS011;4049;49.468;11.200;2023-03-21T03:47:40;9.83;;;4.80;;
8007;SDS011;4049;49.468;11.200;2023-03-21T03:50:11;11.23;;;5.60;;
8007;SDS011;4049;49.468;11.200;2023-03-21T03:52:45;9.43;;;5.17;;
8007;SDS011;4049;49.468;11.200;2023-03-21T03:55:16;6.50;;;4.70;;
8007;SDS011;4049;49.468;11.200;2023-03-21T03:57:45;7.37;;;4.93;;
8007;SDS011;4049;49.468;11.200;2023-03-21T04:00:13;6.47;;;4.37;;
8007;SDS011;4049;49.468;11.200;2023-03-21T04:02:41;6.50;;;4.13;;
8007;SDS011;4049;49.468;11.200;2023-03-21T04:05:09;5.33;;;3.67;;
8007;SDS011;4049;49.468;11.200;2023-03-21T04:07:37;6.00;;;4.03;;
8007;SDS011;4049;49.468;11.200;2023-03-21T04:10:05;5.23;;;3.53;;
8007;SDS011;4049;49.468;11.200;2023-03-21T04:12:34;7.63;;;4.00;;
8007;SDS011;4049;49.468;11.200;2023-03-21T04:15:01;5.33;;;3.77;;
8007;SDS011;4049;49.468;11.200;2023-03-21T04:17:27;6.03;;;3.87;;
8007;SDS011;4049;49.468;11.200;2023-03-21T04:19:54;5.63;;;3.40;;
8007;SDS011;4049;49.468;11.200;2023-03-21T04:22:21;6.23;;;3.70;;
8007;SDS011;4049;49.468;11.200;2023-03-21T04:24:48;5.83;;;3.73;;
8007;SDS011;4049;49.468;11.200;2023-03-21T04:27:15;5.67;;;3.80;;
8007;SDS011;4049;49.468;11.200;2023-03-21T04:29:43;6.40;;;3.77;;
8007;SDS011;4049;49.468;11.200;2023-03-21T04:32:10;6.70;;;3.73;;
8007;SDS011;4049;49.468;11.200;2023-03-21T04:34:41;6.00;;;3.67;;
8007;SDS011;4049;49.468;11.200;2023-03-21T04:37:14;6.93;;;4.10;;
8007;SDS011;4049;49.468;11.200;2023-03-21T04:39:41;4.80;;;3.50;;
8007;SDS011;4049;49.468;11.200;2023-03-21T04:42:10;6.23;;;3.50;;
8007;SDS011;4049;49.468;11.200;2023-03-21T04:44:38;4.70;;;3.20;;
8007;SDS011;4049;49.468;11.200;2023-03-21T04:47:06;5.77;;;3.40;;
8007;SDS011;4049;49.468;11.200;2023-03-21T04:49:33;5.40;;;3.73;;
8007;SDS011;4049;49.468;11.200;2023-03-21T04:52:00;4.07;;;3.30;;
8007;SDS011;4049;49.468;11.200;2023-03-21T04:54:27;4.90;;;3.40;;
8007;SDS011;4049;49.468;11.200;2023-03-21T04:56:54;6.47;;;4.07;;
8007;SDS011;4049;49.468;11.200;2023-03-21T04:59:20;6.27;;;3.40;;
8007;SDS011;4049;49.468;11.200;2023-03-21T05:01:47;7.80;;;3.90;;
8007;SDS011;4049;49.468;11.200;2023-03-21T05:04:17;5.37;;;3.40;;
8007;SDS011;4049;49.468;11.200;2023-03-21T05:06:44;4.87;;;3.60;;
8007;SDS011;4049;49.468;11.200;2023-03-21T05:09:12;5.60;;;3.23;;
8007;SDS011;4049;49.468;11.200;2023-03-21T05:11:39;4.67;;;3.30;;
8007;SDS011;4049;49.468;11.200;2023-03-21T05:14:06;5.40;;;3.83;;
8007;SDS011;4049;49.468;11.200;2023-03-21T05:16:35;4.83;;;3.80;;
8007;SDS011;4049;49.468;11.200;2023-03-21T05:19:12;4.33;;;3.60;;
8007;SDS011;4049;49.468;11.200;2023-03-21T05:21:41;6.23;;;3.53;;
8007;SDS011;4049;49.468;11.200;2023-03-21T05:24:09;8.37;;;3.93;;
8007;SDS011;4049;49.468;11.200;2023-03-21T05:26:39;5.53;;;3.40;;
8007;SDS011;4049;49.468;11.200;2023-03-21T05:29:08;4.73;;;3.57;;
8007;SDS011;4049;49.468;11.200;2023-03-21T05:31:35;6.20;;;3.87;;
8007;SDS011;4049;49.468;11.200;2023-03-21T05:34:02;10.03;;;4.97;;
8007;SDS011;4049;49.468;11.200;2023-03-21T05:36:29;9.20;;;4.60;;
8007;SDS011;4049;49.468;11.200;2023-03-21T05:38:59;6.43;;;4.33;;
8007;SDS011;4049;49.468;11.200;2023-03-21T05:41:26;6.20;;;4.10;;
8007;SDS011;4049;49.468;11.200;2023-03-21T05:43:53;6.17;;;4.33;;
8007;SDS011;4049;49.468;11.200;2023-03-21T05:46:20;6.53;;;4.53;;
8007;SDS011;4049;49.468;11.200;2023-03-21T05:48:47;10.83;;;5.40;;
8007;SDS011;4049;49.468;11.200;2023-03-21T05:51:14;8.97;;;5.40;;
8007;SDS011;4049;49.468;11.200;2023-03-21T05:53:41;7.17;;;5.20;;
8007;SDS011;4049;49.468;11.200;2023-03-21T05:56:10;8.37;;;5.30;;
8007;SDS011;4049;49.468;11.200;2023-03-21T05:58:36;6.63;;;4.80;;
8007;SDS011;4049;49.468;11.200;2023-03-21T06:01:03;7.83;;;4.70;;
8007;SDS011;4049;49.468;11.200;2023-03-21T06:03:31;7.67;;;4.63;;
8007;SDS011;4049;49.468;11.200;2023-03-21T06:05:58;5.80;;;4.07;;
8007;SDS011;4049;49.468;11.200;2023-03-21T06:08:24;6.60;;;4.43;;
8007;SDS011;4049;49.468;11.200;2023-03-21T06:10:51;7.97;;;4.50;;
8007;SDS011;4049;49.468;11.200;2023-03-21T06:13:20;7.43;;;4.97;;
8007;SDS011;4049;49.468;11.200;2023-03-21T06:15:47;6.97;;;4.67;;
8007;SDS011;4049;49.468;11.200;2023-03-21T06:18:14;9.43;;;4.80;;
8007;SDS011;4049;49.468;11.200;2023-03-21T06:20:41;8.80;;;5.60;;
8007;SDS011;4049;49.468;11.200;2023-03-21T06:23:08;8.97;;;5.20;;
8007;SDS011;4049;49.468;11.200;2023-03-21T06:25:34;9.03;;;5.03;;
8007;SDS011;4049;49.468;11.200;2023-03-21T06:28:01;6.37;;;4.70;;
8007;SDS011;4049;49.468;11.200;2023-03-21T06:30:30;9.23;;;5.03;;
8007;SDS011;4049;49.468;11.200;2023-03-21T06:32:56;20.03;;;11.40;;
8007;SDS011;4049;49.468;11.200;2023-03-21T06:35:23;12.70;;;6.10;;
8007;SDS011;4049;49.468;11.200;2023-03-21T06:37:50;9.50;;;6.17;;
8007;SDS011;4049;49.468;11.200;2023-03-21T06:40:17;21.33;;;11.63;;
8007;SDS011;4049;49.468;11.200;2023-03-21T06:42:44;17.27;;;9.80;;
8007;SDS011;4049;49.468;11.200;2023-03-21T06:45:10;10.57;;;6.40;;
8007;SDS011;4049;49.468;11.200;2023-03-21T06:47:38;10.37;;;6.53;;
8007;SDS011;4049;49.468;11.200;2023-03-21T06:50:06;12.63;;;6.00;;
8007;SDS011;4049;49.468;11.200;2023-03-21T06:52:33;11.63;;;6.63;;
8007;SDS011;4049;49.468;11.200;2023-03-21T06:55:00;10.67;;;6.60;;
8007;SDS011;4049;49.468;11.200;2023-03-21T06:57:27;8.80;;;5.47;;
8007;SDS011;4049;49.468;11.200;2023-03-21T06:59:53;7.50;;;5.50;;
8007;SDS011;4049;49.468;11.200;2023-03-21T07:02:20;7.23;;;5.27;;
8007;SDS011;4049;49.468;11.200;2023-03-21T07:04:49;11.97;;;5.10;;
8007;SDS011;4049;49.468;11.200;2023-03-21T07:07:16;9.07;;;5.87;;
8007;SDS011;4049;49.468;11.200;2023-03-21T07:09:42;9.67;;;5.80;;
8007;SDS011;4049;49.468;11.200;2023-03-21T07:12:09;7.80;;;5.37;;
8007;SDS011;4049;49.468;11.200;2023-03-21T07:14:36;9.43;;;5.63;;
8007;SDS011;4049;49.468;11.200;2023-03-21T07:17:03;8.63;;;5.67;;
8007;SDS011;4049;49.468;11.200;2023-03-21T07:19:29;9.37;;;5.50;;
8007;SDS011;4049;49.468;11.200;2023-03-21T07:21:58;7.93;;;5.33;;
8007;SDS011;4049;49.468;11.200;2023-03-21T07:24:25;8.73;;;5.77;;
8007;SDS011;4049;49.468;11.200;2023-03-21T07:26:52;10.20;;;6.13;;
8007;SDS011;4049;49.468;11.200;2023-03-21T07:29:20;11.33;;;5.47;;
8007;SDS011;4049;49.468;11.200;2023-03-21T07:31:47;10.50;;;5.70;;
8007;SDS011;4049;49.468;11.200;2023-03-21T07:34:14;10.00;;;5.50;;
8007;SDS011;4049;49.468;11.200;2023-03-21T07:36:42;12.97;;;6.03;;
8007;SDS011;4049;49.468;11.200;2023-03-21T07:39:11;9.27;;;4.97;;
8007;SDS011;4049;49.468;11.200;2023-03-21T07:41:37;8.40;;;5.30;;
8007;SDS011;4049;49.468;11.200;2023-03-21T07:44:04;9.27;;;5.33;;
8007;SDS011;4049;49.468;11.200;2023-03-21T07:46:31;10.50;;;5.40;;
8007;SDS011;4049;49.468;11.200;2023-03-21T07:48:58;6.80;;;4.80;;
8007;SDS011;4049;49.468;11.200;2023-03-21T07:51:25;9.10;;;5.23;;
8007;SDS011;4049;49.468;11.200;2023-03-21T07:53:51;8.10;;;4.80;;
8007;SDS011;4049;49.468;11.200;2023-03-21T07:56:20;7.53;;;4.90;;
8007;SDS011;4049;49.468;11.200;2023-03-21T07:58:46;5.87;;;3.90;;
8007;SDS011;4049;49.468;11.200;2023-03-21T08:01:13;7.77;;;4.43;;
8007;SDS011;4049;49.468;11.200;2023-03-21T08:03:40;6.03;;;3.87;;
8007;SDS011;4049;49.468;11.200;2023-03-21T08:06:07;9.17;;;4.37;;
8007;SDS011;4049;49.468;11.200;2023-03-21T08:08:35;8.27;;;4.33;;
8007;SDS011;4049;49.468;11.200;2023-03-21T08:11:02;8.23;;;4.27;;
8007;SDS011;4049;49.468;11.200;2023-03-21T08:13:31;6.30;;;4.20;;
8007;SDS011;4049;49.468;11.200;2023-03-21T08:15:58;6.00;;;3.70;;
8007;SDS011;4049;49.468;11.200;2023-03-21T08:18:25;10.57;;;4.07;;
8007;SDS011;4049;49.468;11.200;2023-03-21T08:20:52;5.70;;;3.60;;
8007;SDS011;4049;49.468;11.200;2023-03-21T08:23:19;7.50;;;4.07;;
8007;SDS011;4049;49.468;11.200;2023-03-21T08:25:49;7.83;;;4.03;;
8007;SDS011;4049;49.468;11.200;2023-03-21T08:28:17;8.47;;;4.10;;
8007;SDS011;4049;49.468;11.200;2023-03-21T08:30:45;6.93;;;4.03;;
8007;SDS011;4049;49.468;11.200;2023-03-21T08:33:12;5.57;;;3.83;;
8007;SDS011;4049;49.468;11.200;2023-03-21T08:35:39;8.57;;;3.80;;
8007;SDS011;4049;49.468;11.200;2023-03-21T08:38:06;7.37;;;3.33;;
8007;SDS011;4049;49.468;11.200;2023-03-21T08:40:33;10.47;;;3.77;;
8007;SDS011;4049;49.468;11.200;2023-03-21T08:43:00;5.40;;;3.33;;
8007;SDS011;4049;49.468;11.200;2023-03-21T08:45:27;9.63;;;4.10;;
8007;SDS011;4049;49.468;11.200;2023-03-21T08:47:56;7.40;;;3.60;;
8007;SDS011;4049;49.468;11.200;2023-03-21T08:50:23;7.33;;;3.50;;
8007;SDS011;4049;49.468;11.200;2023-03-21T08:52:53;10.00;;;3.90;;
8007;SDS011;4049;49.468;11.200;2023-03-21T08:55:20;5.87;;;3.43;;
8007;SDS011;4049;49.468;11.200;2023-03-21T08:57:47;4.77;;;3.13;;
8007;SDS011;4049;49.468;11.200;2023-03-21T09:00:15;5.97;;;4.30;;
8007;SDS011;4049;49.468;11.200;2023-03-21T09:02:45;4.70;;;3.40;;
8007;SDS011;4049;49.468;11.200;2023-03-21T09:05:14;3.70;;;3.10;;
8007;SDS011;4049;49.468;11.200;2023-03-21T09:07:42;7.43;;;3.77;;
8007;SDS011;4049;49.468;11.200;2023-03-21T09:10:11;5.60;;;3.10;;
8007;SDS011;4049;49.468;11.200;2023-03-21T09:12:42;5.73;;;3.23;;
8007;SDS011;4049;49.468;11.200;2023-03-21T09:15:09;8.67;;;3.57;;
8007;SDS011;4049;49.468;11.200;2023-03-21T09:17:37;5.93;;;3.50;;
8007;SDS011;4049;49.468;11.200;2023-03-21T09:20:08;6.13;;;3.63;;
8007;SDS011;4049;49.468;11.200;2023-03-21T09:22:44;6.97;;;3.67;;
8007;SDS011;4049;49.468;11.200;2023-03-21T09:25:11;6.53;;;3.80;;
8007;SDS011;4049;49.468;11.200;2023-03-21T09:27:39;4.10;;;3.30;;
8007;SDS011;4049;49.468;11.200;2023-03-21T09:30:07;8.87;;;3.93;;
8007;SDS011;4049;49.468;11.200;2023-03-21T09:32:35;6.50;;;3.87;;
8007;SDS011;4049;49.468;11.200;2023-03-21T09:35:02;6.30;;;3.33;;
8007;SDS011;4049;49.468;11.200;2023-03-21T09:37:31;8.63;;;3.93;;
8007;SDS011;4049;49.468;11.200;2023-03-21T09:39:59;9.00;;;4.03;;
8007;SDS011;4049;49.468;11.200;2023-03-21T09:42:29;9.70;;;3.93;;
8007;SDS011;4049;49.468;11.200;2023-03-21T09:45:03;9.20;;;3.90;;
8007;SDS011;4049;49.468;11.200;2023-03-21T09:47:38;8.53;;;4.40;;
8007;SDS011;4049;49.468;11.200;2023-03-21T09:50:14;5.77;;;3.70;;
8007;SDS011;4049;49.468;11.200;2023-03-21T09:52:45;5.47;;;3.80;;
8007;SDS011;4049;49.468;11.200;2023-03-21T09:55:17;7.03;;;3.77;;
8007;SDS011;4049;49.468;11.200;2023-03-21T09:57:48;9.13;;;3.93;;
8007;SDS011;4049;49.468;11.200;2023-03-21T10:00:23;10.53;;;4.97;;
8007;SDS011;4049;49.468;11.200;2023-03-21T10:02:54;7.73;;;4.13;;
8007;SDS011;4049;49.468;11.200;2023-03-21T10:05:27;5.17;;;3.50;;
8007;SDS011;4049;49.468;11.200;2023-03-21T10:07:59;7.57;;;4.13;;
8007;SDS011;4049;49.468;11.200;2023-03-21T10:10:32;4.60;;;3.13;;
8007;SDS011;4049;49.468;11.200;2023-03-21T10:13:01;6.47;;;3.70;;
8007;SDS011;4049;49.468;11.200;2023-03-21T10:15:30;6.03;;;3.43;;
8007;SDS011;4049;49.468;11.200;2023-03-21T10:17:58;6.60;;;3.50;;
8007;SDS011;4049;49.468;11.200;2023-03-21T10:20:28;7.77;;;3.07;;
8007;SDS011;4049;49.468;11.200;2023-03-21T10:22:57;5.50;;;3.47;;
8007;SDS011;4049;49.468;11.200;2023-03-21T10:25:29;3.97;;;3.23;;
8007;SDS011;4049;49.468;11.200;2023-03-21T10:27:59;6.70;;;3.23;;
8007;SDS011;4049;49.468;11.200;2023-03-21T10:30:29;4.90;;;3.20;;
8007;SDS011;4049;49.468;11.200;2023-03-21T10:33:02;6.47;;;3.67;;
8007;SDS011;4049;49.468;11.200;2023-03-21T10:35:36;5.73;;;3.37;;
8007;SDS011;4049;49.468;11.200;2023-03-21T10:38:04;6.90;;;3.63;;
8007;SDS011;4049;49.468;11.200;2023-03-21T10:40:33;6.63;;;2.90;;
8007;SDS011;4049;49.468;11.200;2023-03-21T10:45:55;9.03;;;3.50;;
8007;SDS011;4049;49.468;11.200;2023-03-21T10:48:22;4.10;;;3.50;;
8007;SDS011;4049;49.468;11.200;2023-03-21T10:50:50;3.67;;;2.93;;
8007;SDS011;4049;49.468;11.200;2023-03-21T10:53:21;6.07;;;3.17;;
8007;SDS011;4049;49.468;11.200;2023-03-21T10:55:53;8.37;;;5.80;;
8007;SDS011;4049;49.468;11.200;2023-03-21T10:58:24;6.57;;;2.80;;
8007;SDS011;4049;49.468;11.200;2023-03-21T11:00:53;5.10;;;3.00;;
8007;SDS011;4049;49.468;11.200;2023-03-21T11:03:24;4.03;;;3.20;;
8007;SDS011;4049;49.468;11.200;2023-03-21T11:05:55;4.47;;;3.13;;
8007;SDS011;4049;49.468;11.200;2023-03-21T11:08:27;5.83;;;2.97;;
8007;SDS011;4049;49.468;11.200;2023-03-21T11:11:00;3.67;;;2.93;;
8007;SDS011;4049;49.468;11.200;2023-03-21T11:13:33;3.87;;;2.77;;
8007;SDS011;4049;49.468;11.200;2023-03-21T11:16:04;5.00;;;2.50;;
8007;SDS011;4049;49.468;11.200;2023-03-21T11:18:35;3.30;;;2.57;;
8007;SDS011;4049;49.468;11.200;2023-03-21T11:21:07;4.03;;;2.43;;
8007;SDS011;4049;49.468;11.200;2023-03-21T11:23:37;4.30;;;2.10;;
8007;SDS011;4049;49.468;11.200;2023-03-21T11:26:09;3.30;;;2.30;;
8007;SDS011;4049;49.468;11.200;2023-03-21T11:28:41;3.30;;;2.43;;
8007;SDS011;4049;49.468;11.200;2023-03-21T11:31:09;5.07;;;2.70;;
8007;SDS011;4049;49.468;11.200;2023-03-21T11:33:37;5.03;;;3.00;;
8007;SDS011;4049;49.468;11.200;2023-03-21T11:36:06;3.33;;;2.30;;
8007;SDS011;4049;49.468;11.200;2023-03-21T11:38:56;3.97;;;2.27;;
8007;SDS011;4049;49.468;11.200;2023-03-21T11:41:28;4.73;;;2.53;;
8007;SDS011;4049;49.468;11.200;2023-03-21T11:43:57;5.77;;;2.40;;
8007;SDS011;4049;49.468;11.200;2023-03-21T11:46:25;5.27;;;2.73;;
8007;SDS011;4049;49.468;11.200;2023-03-21T11:48:54;3.73;;;2.20;;
8007;SDS011;4049;49.468;11.200;2023-03-21T11:51:23;3.53;;;2.30;;
8007;SDS011;4049;49.468;11.200;2023-03-21T11:53:59;4.40;;;2.43;;
8007;SDS011;4049;49.468;11.200;2023-03-21T11:56:34;3.00;;;2.60;;
8007;SDS011;4049;49.468;11.200;2023-03-21T11:59:13;5.27;;;2.50;;
8007;SDS011;4049;49.468;11.200;2023-03-21T12:01:53;4.73;;;3.13;;
8007;SDS011;4049;49.468;11.200;2023-03-21T12:04:30;4.70;;;3.00;;
8007;SDS011;4049;49.468;11.200;2023-03-21T12:07:08;4.57;;;3.13;;
8007;SDS011;4049;49.468;11.200;2023-03-21T12:09:49;4.00;;;2.70;;
8007;SDS011;4049;49.468;11.200;2023-03-21T12:12:31;4.17;;;2.97;;
8007;SDS011;4049;49.468;11.200;2023-03-21T12:15:09;4.23;;;2.70;;
8007;SDS011;4049;49.468;11.200;2023-03-21T12:17:42;5.37;;;3.10;;
8007;SDS011;4049;49.468;11.200;2023-03-21T12:20:20;4.77;;;3.03;;
8007;SDS011;4049;49.468;11.200;2023-03-21T12:22:55;3.83;;;2.77;;
8007;SDS011;4049;49.468;11.200;2023-03-21T12:25:32;3.80;;;2.73;;
8007;SDS011;4049;49.468;11.200;2023-03-21T12:28:07;5.20;;;3.07;;
8007;SDS011;4049;49.468;11.200;2023-03-21T12:30:49;5.73;;;3.50;;
8007;SDS011;4049;49.468;11.200;2023-03-21T12:33:29;5.40;;;3.20;;
8007;SDS011;4049;49.468;11.200;2023-03-21T12:36:10;5.30;;;3.20;;
8007;SDS011;4049;49.468;11.200;2023-03-21T12:38:55;4.20;;;3.20;;
8007;SDS011;4049;49.468;11.200;2023-03-21T12:41:30;4.83;;;2.80;;
8007;SDS011;4049;49.468;11.200;2023-03-21T12:44:01;4.53;;;2.60;;
8007;SDS011;4049;49.468;11.200;2023-03-21T12:46:31;5.83;;;3.30;;
8007;SDS011;4049;49.468;11.200;2023-03-21T12:49:04;5.20;;;3.20;;
8007;SDS011;4049;49.468;11.200;2023-03-21T12:51:36;5.07;;;3.20;;
8007;SDS011;4049;49.468;11.200;2023-03-21T12:54:10;5.10;;;3.50;;
8007;SDS011;4049;49.468;11.200;2023-03-21T12:56:44;4.57;;;3.07;;
8007;SDS011;4049;49.468;11.200;2023-03-21T12:59:19;5.10;;;2.97;;
8007;SDS011;4049;49.468;11.200;2023-03-21T13:01:57;2.93;;;2.63;;
8007;SDS011;4049;49.468;11.200;2023-03-21T13:04:39;6.10;;;3.30;;
8007;SDS011;4049;49.468;11.200;2023-03-21T13:07:12;6.67;;;3.50;;
8007;SDS011;4049;49.468;11.200;2023-03-21T13:09:44;5.43;;;2.93;;
8007;SDS011;4049;49.468;11.200;2023-03-21T13:12:18;3.40;;;2.67;;
8007;SDS011;4049;49.468;11.200;2023-03-21T13:15:00;3.83;;;2.80;;
8007;SDS011;4049;49.468;11.200;2023-03-21T13:17:33;7.37;;;3.13;;
8007;SDS011;4049;49.468;11.200;2023-03-21T13:20:08;4.73;;;2.57;;
8007;SDS011;4049;49.468;11.200;2023-03-21T13:22:45;5.37;;;3.10;;
8007;SDS011;4049;49.468;11.200;2023-03-21T13:25:18;4.47;;;2.90;;
8007;SDS011;4049;49.468;11.200;2023-03-21T13:27:50;3.33;;;2.97;;
8007;SDS011;4049;49.468;11.200;2023-03-21T13:30:21;3.93;;;2.60;;
8007;SDS011;4049;49.468;11.200;2023-03-21T13:32:50;2.87;;;2.33;;
8007;SDS011;4049;49.468;11.200;2023-03-21T13:35:22;5.10;;;2.70;;
8007;SDS011;4049;49.468;11.200;2023-03-21T13:37:52;3.43;;;2.60;;
8007;SDS011;4049;49.468;11.200;2023-03-21T13:40:25;5.87;;;2.73;;
8007;SDS011;4049;49.468;11.200;2023-03-21T13:42:54;3.87;;;2.63;;
8007;SDS011;4049;49.468;11.200;2023-03-21T13:45:26;3.10;;;2.40;;
8007;SDS011;4049;49.468;11.200;2023-03-21T13:47:57;6.07;;;3.93;;
8007;SDS011;4049;49.468;11.200;2023-03-21T13:50:29;3.30;;;2.80;;
8007;SDS011;4049;49.468;11.200;2023-03-21T13:55:59;2.97;;;2.60;;
8007;SDS011;4049;49.468;11.200;2023-03-21T13:58:49;5.77;;;2.60;;
8007;SDS011;4049;49.468;11.200;2023-03-21T14:01:24;4.63;;;2.47;;
8007;SDS011;4049;49.468;11.200;2023-03-21T14:03:57;3.20;;;2.47;;
8007;SDS011;4049;49.468;11.200;2023-03-21T14:06:29;5.97;;;2.77;;
8007;SDS011;4049;49.468;11.200;2023-03-21T14:08:58;2.73;;;2.37;;
8007;SDS011;4049;49.468;11.200;2023-03-21T14:11:26;3.27;;;2.60;;
8007;SDS011;4049;49.468;11.200;2023-03-21T14:13:57;3.30;;;2.70;;
8007;SDS011;4049;49.468;11.200;2023-03-21T14:16:26;4.27;;;3.10;;
8007;SDS011;4049;49.468;11.200;2023-03-21T14:18:55;3.67;;;2.70;;
8007;SDS011;4049;49.468;11.200;2023-03-21T14:21:25;3.30;;;2.50;;
8007;SDS011;4049;49.468;11.200;2023-03-21T14:23:57;4.17;;;2.67;;
8007;SDS011;4049;49.468;11.200;2023-03-21T14:26:26;4.03;;;2.73;;
8007;SDS011;4049;49.468;11.200;2023-03-21T14:28:55;3.10;;;2.23;;
8007;SDS011;4049;49.468;11.200;2023-03-21T14:31:22;3.93;;;2.37;;
8007;SDS011;4049;49.468;11.200;2023-03-21T14:33:52;5.47;;;2.40;;
8007;SDS011;4049;49.468;11.200;2023-03-21T14:36:23;3.40;;;2.30;;
8007;SDS011;4049;49.468;11.200;2023-03-21T14:38:53;4.07;;;2.30;;
8007;SDS011;4049;49.468;11.200;2023-03-21T14:41:22;2.67;;;2.10;;
8007;SDS011;4049;49.468;11.200;2023-03-21T14:43:59;4.47;;;2.47;;
8007;SDS011;4049;49.468;11.200;2023-03-21T14:46:36;4.27;;;2.70;;
8007;SDS011;4049;49.468;11.200;2023-03-21T14:49:11;4.07;;;2.10;;
8007;SDS011;4049;49.468;11.200;2023-03-21T14:51:39;2.87;;;2.23;;
8007;SDS011;4049;49.468;11.200;2023-03-21T14:54:08;3.07;;;2.50;;
8007;SDS011;4049;49.468;11.200;2023-03-21T14:56:38;3.83;;;2.77;;
8007;SDS011;4049;49.468;11.200;2023-03-21T14:59:05;4.43;;;2.50;;
8007;SDS011;4049;49.468;11.200;2023-03-21T15:01:36;5.30;;;2.30;;
8007;SDS011;4049;49.468;11.200;2023-03-21T15:04:05;2.23;;;2.00;;
8007;SDS011;4049;49.468;11.200;2023-03-21T15:06:33;3.23;;;2.37;;
8007;SDS011;4049;49.468;11.200;2023-03-21T15:09:17;4.43;;;2.20;;
8007;SDS011;4049;49.468;11.200;2023-03-21T15:11:47;2.63;;;1.80;;
8007;SDS011;4049;49.468;11.200;2023-03-21T15:14:15;2.43;;;1.80;;
8007;SDS011;4049;49.468;11.200;2023-03-21T15:16:44;3.47;;;1.73;;
8007;SDS011;4049;49.468;11.200;2023-03-21T15:19:13;2.13;;;1.70;;
8007;SDS011;4049;49.468;11.200;2023-03-21T15:21:45;2.07;;;1.70;;
8007;SDS011;4049;49.468;11.200;2023-03-21T15:24:15;2.23;;;1.73;;
8007;SDS011;4049;49.468;11.200;2023-03-21T15:26:46;2.30;;;1.70;;